x

Los Angeles Pier F, Ca - 9410670 (pfxc1) Weather Station

4:54 - Sat 24th Sep 2016 All times are PDT. -7 hours from GMT.

  • Wind
    8mph, 10mph gusts
  • Ar Temp 84°f
  • Sea Pressure 1012.6mb
  • Los Angeles Pier F, Ca - 9410670
  • Los Angeles Pier F, Ca - 9410670

More Historic Weather Station data

Upgrade to MSW Pro to gain access to the past 30 days of data for over 8000 Wavebouys and Weather Stations around the globe.

Join Pro

Comparision Forecast

View Surf forecast
   
Sáb 09/24 4:54 8 10 mph 1012.6mb 84f
4:48 8 11 mph 1012.6mb -
4:42 5 8 mph 1012.6mb -
4:36 1 2 mph 1012.8mb -
4:30 5 8 mph 1012.7mb 82f
4:24 7 8 mph 1012.5mb 81f
4:18 7 8 mph 1012.6mb 81f
4:12 7 8 mph 1012.6mb 81f
4:06 7 9 mph 1012.6mb 81f
4:00  -  mph 1012.7mb 82f
3:54  -  mph 1012.8mb 82f
3:48 6 9 mph 1012.9mb -
3:42 7 8 mph 1012.9mb -
3:36 9 10 mph 1012.9mb -
3:30 9 11 mph - -
3:24 9 10 mph - -
3:18 8 10 mph 1013.1mb 81f
3:12 7 9 mph 1013.3mb 80f
3:06 10 11 mph 1013.2mb 78f
3:00 13 14 mph 1013.1mb 77f
2:54 13 14 mph 1013.1mb 77f
2:48 14 15 mph 1013.3mb 77f
2:42 14
mph
1013.2mb 76f
2:36 13 14 mph 1013.1mb 76f
2:30 14 15 mph 1013.2mb 76f
2:24 11 14 mph 1013.3mb 76f
2:18 10 13 mph 1013.4mb 77f
2:12 10 11 mph 1013.6mb 76f
2:06 13 14 mph 1013.6mb 76f
2:00 14
mph
1013.7mb 74f
1:54 15 16 mph 1013.7mb 74f
1:48 16 17 mph 1013.8mb 74f
1:42 15 16 mph 1014mb 74f
1:36 16
mph
1014mb 73f
1:30 15 16 mph 1014mb 73f
1:24 16 17 mph 1014.2mb 73f
1:18 16 17 mph 1014.2mb 73f
1:12 16 17 mph 1014.4mb 73f
1:06 15 17 mph 1014.3mb 73f
1:00 13 14 mph 1014.4mb 74f
12:54 14 15 mph 1014.5mb 74f
12:48 15
mph
1014.7mb 73f
12:42 14 15 mph 1014.7mb 71f
12:36 13 15 mph 1014.9mb 72f
12:30 11 14 mph 1014.9mb 70f
12:24 9 11 mph 1015mb 71f
12:18 10 13 mph 1015.2mb 71f
12:12 9 11 mph 1015mb 70f
12:06 9 11 mph 1015.2mb 71f
12:00 7 9 mph 1015.2mb 70f
11:54 7 9 mph 1015.2mb 70f
11:48 8 9 mph 1015.3mb 70f
11:42 8 9 mph 1015.2mb 69f
11:36 8 9 mph 1015.3mb 69f
11:30 8 9 mph 1015.2mb 69f
11:24 7 8 mph 1015.3mb 69f
11:18 6 7 mph 1015.3mb 70f
11:12 6
mph
1015.4mb 72f
11:06 5
mph
1015.6mb 72f
11:00 3 5 mph 1015.6mb 71f
10:48 3 5 mph 1015.7mb 68f
10:42 5 6 mph 1015.7mb 68f
10:36 5 6 mph 1015.6mb 69f
10:30 6 7 mph 1015.8mb 70f
10:24 6 7 mph 1015.8mb 70f
10:18 6 7 mph 1015.8mb 70f
10:12 7
mph
1015.8mb 71f
10:06 6 7 mph 1015.8mb 70f
10:00 5 6 mph 1015.7mb 69f
9:54 5
mph
1015.5mb 67f
9:48 3 5 mph 1015.5mb 67f
9:42 3
mph
1015.4mb 68f
9:36 3
mph
1015.4mb 70f
9:30 3 5 mph 1015.5mb 69f
9:24 5
mph
1015.5mb 70f
9:18 5 6 mph 1015.5mb 69f
9:12 3
mph
1015.4mb 68f
9:06 2
mph
1015.3mb 69f
9:00 1 2 mph 1015.3mb 70f
8:54  -  1 mph 1015.3mb 70f
8:48  -  2 mph 1015.4mb 70f
8:42 1 2 mph 1015.4mb 70f
8:36 1 2 mph 1015.4mb 69f
8:30  -  1 mph 1015.4mb 69f
8:24  -  1 mph 1015.3mb 68f
8:18  -  mph 1015.4mb 68f
8:12  -  1 mph 1015.4mb 68f
8:06 1
mph
1015.4mb 67f
8:00 1 2 mph 1015.4mb 67f
7:54 1
mph
1015.4mb 67f
7:48 1 2 mph 1015.4mb 67f
7:42 2
mph
1015.3mb 67f
7:36  -  2 mph - 67f
7:30  -  1 mph 1015.3mb 67f
7:24  -  3 mph 1015.3mb 67f
7:18 2 5 mph 1015.3mb 66f
7:12 3 6 mph 1015.3mb 65f
7:06 5
mph
1015.2mb 65f
7:00 2 3 mph 1015mb 64f
6:54 2 3 mph 1014.9mb 64f
6:48 1 2 mph 1014.8mb 64f
6:42 2 3 mph 1014.8mb 64f
6:36 3
mph
1014.7mb 64f
6:30  -  2 mph 1014.6mb 64f
6:24  -  2 mph 1014.6mb 64f
6:18 2
mph
1014.8mb 64f
6:12 2 3 mph 1014.8mb 65f
6:06 2 3 mph 1014.9mb 64f
6:00 2 3 mph 1014.9mb 64f
5:54 2
mph
1014.7mb 64f
5:48 3
mph
1014.7mb 64f
5:42 2 3 mph 1014.5mb 64f
5:36 2
mph
1014.4mb 64f
5:30 2 3 mph 1014.3mb 64f
5:24  -  2 mph 1014.3mb 64f
5:18 1 2 mph 1014.2mb 64f
5:12  -  2 mph 1014.2mb 64f
5:06 2
mph
1014.3mb 65f
5:00 1 2 mph 1014.3mb 64f
4:54 2 3 mph 1014.2mb 65f
4:48 2 3 mph 1014.3mb 65f
4:42 3 5 mph 1014.3mb 65f
4:36 3 5 mph 1014.3mb 65f
4:30 5
mph
1014.2mb 65f
4:24 5 6 mph 1014.1mb 65f
4:18 3 5 mph 1014.2mb 65f
4:12 2
mph
1014.2mb 65f
4:06  -  1 mph 1014.2mb 64f
4:00  -  2 mph 1014.1mb 65f
3:54 2
mph
1014mb 64f
3:48 1 2 mph 1013.9mb 64f
3:42 2
mph
1013.8mb 64f
3:36 1 2 mph 1013.7mb 64f
3:30  -  mph 1013.7mb 64f
3:24 1 2 mph 1013.7mb 65f
3:18 2 3 mph 1013.8mb 64f
3:12 2 3 mph 1014mb 64f
3:06  -  1 mph 1014mb 64f
3:00 2
mph
1014.3mb 64f
2:54  -  2 mph 1014.4mb 64f
2:48  -  mph 1014.2mb 64f
2:42  -  1 mph 1014.2mb 65f
2:36 1 2 mph 1014.1mb 64f
2:30 2 3 mph 1014.1mb 64f
2:24 3
mph
1014mb 65f
2:18 3
mph
1014.1mb 65f
2:12 2 3 mph 1014.1mb 65f
2:06 1 2 mph 1014.2mb 66f
2:00  -  1 mph 1014.2mb 66f
1:54  -  1 mph 1014.2mb 66f
1:48  -  1 mph 1014.2mb 66f
1:42  -  1 mph 1014mb 66f
1:36  -  1 mph 1013.9mb 66f
1:30  -  1 mph 1013.8mb 66f
1:24 1
mph
1013.9mb 67f
1:18 1
mph
1013.8mb 67f
1:12  -  1 mph 1013.8mb 66f
1:06  -  mph 1013.7mb 66f
1:00  -  1 mph 1013.8mb 67f
12:54  -  1 mph 1013.7mb 67f
12:48 2
mph
1013.8mb 66f
12:42 2
mph
1013.7mb 67f
12:36 1
mph
1013.7mb 67f
12:30 1
mph
1013.7mb 67f
12:24  -  1 mph 1013.8mb 67f
12:18 1 2 mph 1013.8mb 66f
12:12 1 2 mph 1013.7mb 66f
12:06 1
mph
1013.8mb 66f
12:00  -  1 mph 1013.8mb 66f
Sex 09/23 11:54  -  mph 1013.9mb 67f
11:48  -  1 mph 1013.9mb 67f
11:42  -  1 mph 1014mb 67f
11:36  -  1 mph 1014mb 67f
11:30 1 2 mph 1013.9mb 67f
11:24 2
mph
1013.9mb 67f
11:18 2
mph
1013.9mb 67f
11:12 3
mph
1013.8mb 67f
11:06 2 3 mph 1013.8mb 68f
11:00 1 2 mph 1013.9mb 68f
10:54 2
mph
1013.9mb 68f
10:48 2
mph
1013.9mb 68f
10:42  -  2 mph 1013.7mb 68f
10:36 2
mph
1013.7mb 67f
10:30 1 2 mph 1013.7mb 66f
10:24 1 2 mph 1013.6mb 66f
10:18 2
mph
1013.7mb 66f
10:12  -  2 mph 1013.7mb 67f
10:06  -  1 mph 1013.7mb 66f
10:00  -  1 mph 1013.6mb 67f
9:54  -  1 mph 1013.6mb 67f
9:48  -  1 mph 1013.6mb 67f
9:42 1 3 mph 1013.4mb 67f
9:36 1 2 mph 1013.5mb 67f
9:30 1 2 mph 1013.4mb 68f
9:24 2
mph
1013.4mb 67f
9:18 2
mph
1013.4mb 67f
9:12  -  2 mph 1013.4mb 67f
9:06 2
mph
1013.3mb 67f
9:00 3
mph
1013.3mb 67f
8:54 2 3 mph 1013.3mb 67f
8:48 3
mph
1013.3mb 67f
8:42 2
mph
1013.3mb 67f
8:36 2
mph
1013.3mb 67f
8:30 2 3 mph 1013.3mb 67f
8:24 5 6 mph 1013.3mb 67f
8:18 5 6 mph 1013.1mb 68f
8:12 3 5 mph 1013.1mb 71f
8:06 3 5 mph 1013.2mb 70f
8:00 1 5 mph 1013.1mb 69f
7:54 2 5 mph 1013.1mb 69f
7:48 1 5 mph 1012.9mb 69f
7:42 1 2 mph 1012.8mb 69f
7:36 3 5 mph 1012.8mb 69f
7:30 1 5 mph 1012.8mb 70f
7:24 2 3 mph 1012.8mb 69f
7:18 1 5 mph 1012.8mb 69f
7:12 1 5 mph 1012.8mb 69f
7:06 1 3 mph 1012.8mb 69f
7:00 2 3 mph 1012.7mb 69f
6:54 1 3 mph 1012.6mb 69f
6:48 5 6 mph 1012.6mb 69f
6:42 5 7 mph 1012.6mb 70f
6:36 5 7 mph 1012.6mb 71f
6:30 2 6 mph 1012.6mb 74f
6:24 6 8 mph 1012.6mb 74f
6:18 6 8 mph 1012.6mb 74f
6:12 7 9 mph 1012.6mb 74f
6:06 8 9 mph 1012.7mb 74f
6:00 10 13 mph 1012.7mb 73f
5:54 9 13 mph 1012.6mb 75f
5:48  -  mph 1012.7mb -
5:42  -  mph 1012.7mb -
5:36  -  mph 1012.8mb -
5:30 9 14 mph 1012.8mb 78f
5:24 11 14 mph 1012.8mb 78f
5:18 10 14 mph 1012.7mb 78f
5:12 10 14 mph 1012.7mb 78f
5:06 5 7 mph 1012.8mb 77f
5:00 7 8 mph 1012.7mb 77f
4:54 6 9 mph 1012.8mb 78f
4:48 6 8 mph 1012.9mb -
4:42 8 10 mph 1012.9mb -
4:36 9 11 mph 1012.9mb -
4:30 10 14 mph - -
4:24 13 15 mph - -
4:18 13 16 mph 1012.9mb 76f
4:12 11 15 mph 1013mb 76f
4:06 13 15 mph 1013mb 76f
4:00 11 14 mph 1013mb 76f
3:54 10 16 mph 1013mb 76f
3:48 11 14 mph 1013mb -
3:42 11 16 mph 1012.9mb -
3:36 10 15 mph 1013.1mb -
3:30 10 14 mph 1013.1mb 76f
3:24 13 15 mph 1013mb 75f
3:12 15 17 mph 1012.8mb 75f
3:06 15 20 mph 1012.7mb 74f
3:00 15 20 mph 1012.6mb -
2:54 13 16 mph 1012.7mb -
2:48 13 16 mph 1012.8mb 75f
2:42 14 17 mph 1012.8mb 75f
2:36 13 16 mph 1012.8mb 76f
2:30 13 16 mph 1012.8mb 76f
2:24 13 15 mph 1013mb 76f
2:18 13 15 mph 1013.1mb 74f
2:12 16 20 mph 1013.1mb 72f
2:06 20 21 mph 1013.2mb 71f
2:00 18 21 mph 1013.2mb 70f
1:54 16 18 mph 1013.3mb 71f
1:48 11 15 mph 1013.5mb 73f
1:42 10 13 mph 1013.7mb 74f
1:36 11 13 mph 1013.8mb 73f
1:30 11 14 mph 1014mb 72f
1:24 14 16 mph 1013.9mb 71f
1:18 14 16 mph 1014mb 71f
1:12 15 17 mph 1014mb 70f
1:06 15 16 mph 1014mb 70f
1:00 14 16 mph 1014.1mb 70f
12:54 11 13 mph 1014.2mb 71f
12:48 10 11 mph 1014.5mb 71f
12:42 9 11 mph 1014.7mb 71f
12:36 9 11 mph 1014.8mb 71f
12:30 9 10 mph 1014.8mb 70f
12:24 9 10 mph 1015.1mb 69f
12:18 8 9 mph 1015.1mb 67f
12:12 8 9 mph 1015.1mb 66f
12:06 9
mph
1015.1mb 66f
12:00 8 9 mph 1015.1mb 67f
11:54 6 7 mph 1015.3mb 67f
11:48 6 7 mph 1015.5mb 66f
11:42 7
mph
1015.5mb 66f
11:36 6 7 mph 1015.6mb 67f
11:30 6 7 mph 1015.7mb 67f
11:24 6 7 mph 1015.7mb 67f
11:18 6 7 mph 1015.7mb 67f
11:12 6 7 mph 1015.8mb 66f
11:06 7 8 mph 1015.6mb 65f
11:00 6 7 mph 1015.6mb 65f
10:54 7 8 mph 1015.7mb 67f
10:48 7 8 mph 1015.7mb 68f
10:42 6 8 mph 1015.8mb 68f
10:36 6 7 mph 1015.9mb 68f
10:30 6
mph
1015.9mb 69f
10:18 7
mph
1015.8mb 67f
10:12 7
mph
1015.7mb 67f
10:06 7 8 mph 1015.5mb 67f
10:00 7 8 mph 1015.7mb 67f
9:54 8 9 mph 1015.5mb 66f
9:48 8 10 mph 1015.4mb 66f
9:42 8 10 mph 1015.4mb 67f
9:36 8 9 mph 1015.3mb 67f
9:30 6 8 mph 1015.3mb 67f
9:24 7 9 mph 1015.2mb 67f
9:18 7 8 mph 1015.1mb 66f
9:12 7 10 mph 1015.1mb 66f
9:06 7 9 mph 1014.9mb 66f
9:00 6 8 mph 1015mb 66f
8:54 7 9 mph 1014.9mb 66f
8:48 5 8 mph 1015.2mb 66f
8:42 6 8 mph 1015.3mb 66f
8:36 6 8 mph 1015.4mb 65f
8:30 6 7 mph 1015.4mb 66f
8:24 3 7 mph 1015.3mb 65f
8:18 6 9 mph 1015.3mb 65f
8:12 3 7 mph 1015.2mb 65f
8:06 6 8 mph 1015.1mb 64f
8:00 6 8 mph 1015mb 64f
7:54 6 8 mph 1014.8mb 64f
7:48 5 7 mph 1014.8mb 64f
7:42 6 9 mph 1014.8mb 63f
7:36 7 9 mph 1014.7mb 63f
7:30 7 10 mph 1014.6mb 63f
7:24 6 9 mph 1014.4mb 63f
7:18 7 10 mph 1014.3mb 62f
7:12 7 9 mph 1014.3mb 62f
7:06 7 9 mph 1014.2mb 62f
7:00 7 9 mph 1014.2mb 62f
6:54 7 8 mph 1014.2mb 62f
6:48 7 8 mph 1014.2mb 62f
6:42 7 9 mph 1014.1mb 62f
6:36 7 8 mph 1014.1mb 62f
6:30 7 9 mph 1014.1mb 62f
6:24 6 8 mph 1014.1mb 62f
6:18 6 8 mph 1013.9mb 62f
6:12 7 9 mph 1013.9mb 62f
6:06 6 8 mph 1013.9mb 62f
6:00 6 7 mph 1013.8mb 62f
5:54 6 8 mph 1013.7mb 62f
5:48 8 9 mph 1013.6mb 62f
5:42 7 9 mph 1013.6mb 62f
5:36 7 8 mph 1013.5mb 63f
5:30 6 9 mph 1013.5mb 63f
5:24 7 10 mph 1013.5mb 64f
5:18 8 11 mph 1013.4mb 64f
5:12 8 10 mph 1013.4mb 65f
5:06 9 11 mph 1013.4mb 65f
5:00 9 11 mph 1013.3mb 65f
4:54 9 11 mph 1013.3mb 65f
4:48 9 13 mph 1013.2mb 65f
4:42 9 13 mph 1013.1mb 65f
4:36 9 13 mph 1013.1mb 65f
4:30 9 13 mph 1013.1mb 65f
4:24 10 11 mph 1013.1mb 65f
4:18 9 11 mph 1013.1mb 65f
4:12 10 14 mph 1013.1mb 65f
4:06 9 13 mph 1013mb 65f
4:00 10 14 mph 1012.9mb 65f
3:54 13 14 mph 1012.8mb 65f
3:48 14 16 mph 1012.6mb 65f
3:42 15 17 mph 1012.7mb 65f
3:36 15 18 mph 1012.7mb 65f
3:30 15 16 mph 1012.7mb 65f
3:24 15 17 mph 1012.7mb 65f
3:18 14 17 mph 1012.7mb 65f
3:12 13 15 mph 1012.8mb 65f
3:06 14 15 mph 1012.8mb 65f
3:00 14 16 mph 1012.8mb 65f
2:54 14 17 mph 1012.8mb 65f
2:48 16 18 mph 1012.6mb 65f
2:42 16 18 mph 1012.6mb 65f
2:36 15 17 mph 1012.6mb 65f
2:30 15 17 mph 1012.6mb 65f
2:24 16 18 mph 1012.5mb 65f
2:18 16 20 mph 1012.4mb 65f
2:12 15 17 mph 1012.6mb 65f
2:06 16 20 mph 1012.5mb 65f
2:00 16 18 mph 1012.4mb 65f
1:54 17 21 mph 1012.3mb 65f
1:48 15 17 mph 1012.4mb 65f
1:42 16 20 mph 1012.4mb 65f
1:36 15 18 mph 1012.3mb 65f
1:30 14 16 mph 1012.3mb 65f
1:24 9 14 mph 1012.3mb 67f
1:18 7 8 mph 1012.4mb 67f
1:12 7 9 mph 1012.3mb 67f
1:06 8 10 mph 1012.3mb 67f
1:00 9 11 mph 1012.2mb 66f
12:54 7 9 mph 1012.3mb 66f
12:48 8 11 mph 1012.3mb 66f
12:42 8 11 mph 1012.3mb 66f
12:36 3 6 mph 1012.3mb 66f
12:30 5 8 mph 1012.3mb 67f
12:24 6 7 mph 1012.2mb 69f
12:18 6 10 mph 1012.3mb 68f
12:12 3 7 mph 1012.3mb 67f
12:06 1 3 mph 1012.3mb 66f
12:00 2 5 mph 1012.3mb 65f
Qui 09/22 11:54 3 6 mph 1012.3mb 65f
11:48 3 5 mph 1012.3mb -
11:42 3 8 mph 1012.3mb -
11:36 3 7 mph 1012.3mb -
11:30 6 8 mph 1012.2mb 65f
11:24 5 7 mph 1012.3mb 65f
11:18 8 9 mph 1012.3mb 65f
11:12 3 7 mph 1012.3mb 66f
11:06 3 6 mph 1012.3mb 66f
11:00 5 6 mph 1012.2mb 66f
10:54 6 8 mph 1012.3mb 66f
10:48 6 8 mph 1012.3mb 66f
10:42 6 9 mph 1012.3mb 66f
10:36 8 10 mph 1012.2mb 66f
10:30 9 13 mph 1012.2mb 66f
10:24 8 10 mph 1012.3mb 66f
10:18 9 13 mph 1012.3mb 66f
10:12 9 13 mph 1012.2mb 67f
10:06 8 10 mph 1012.1mb 67f
10:00 6 7 mph 1012.1mb 67f
9:54 7 10 mph 1012mb 67f
9:48 7 11 mph 1012.1mb 67f
9:42 8 11 mph 1012.1mb 67f
9:36 9 13 mph 1011.9mb 67f
9:30 10 11 mph 1011.7mb 67f
9:24 9 11 mph 1011.7mb 67f
9:18 8 9 mph 1011.7mb 67f
9:12 6 7 mph 1011.7mb 67f
9:06 6 8 mph 1011.5mb 67f
9:00 5 6 mph 1011.4mb 67f
8:54 3 5 mph 1011.3mb 67f
8:48 5 6 mph 1011.2mb 67f
8:42 6 7 mph 1011mb 67f
8:36 6 7 mph 1011mb 67f
8:30 6 7 mph 1011mb 67f
8:24 3 6 mph 1011mb 67f
8:18 3
mph
1010.8mb 67f
8:12 3 5 mph 1010.7mb 67f
8:06 3 5 mph 1010.7mb 67f
8:00 2 3 mph 1010.6mb 66f
7:54 1 2 mph 1010.4mb 66f
7:48 3 5 mph 1010.4mb 67f
7:42 5 7 mph 1010.4mb 67f
7:36 7 10 mph 1010.5mb 67f
7:30 9 11 mph 1010.3mb -
7:24 7 9 mph 1010.4mb -
7:18  -  mph 1010.3mb 66f
7:12  -  mph 1010.2mb 67f
7:06  -  mph 1010.1mb 67f
7:00 9 11 mph 1010.2mb 67f
6:54 10 14 mph 1010.2mb 67f
6:48 11 15 mph 1010.1mb -
6:42 13 16 mph 1010.2mb -
6:36 11 16 mph 1010.2mb -
6:30 14 17 mph 1010.2mb -
6:24 14 16 mph 1010.1mb -
6:18 16 18 mph - 67f
6:12 14 16 mph - 67f
6:06 14 17 mph - 68f
6:00 14 17 mph 1010.1mb 69f
5:54 15 18 mph 1010mb 69f
5:48 13 15 mph 1010.1mb 70f
5:42 9 13 mph 1010.1mb 70f
5:36 11 15 mph 1010.1mb 70f
5:30 8 14 mph 1010.2mb 71f
5:24 6 9 mph 1010.3mb 71f
5:18 6 14 mph 1010.1mb 71f
5:12 13 16 mph 1010.1mb 71f
5:06 13 16 mph 1010mb 71f
5:00 11 16 mph 1010.1mb 72f
4:54 14 17 mph 1010.1mb 71f
4:48 14 20 mph 1010.2mb -
4:42 17 21 mph 1010.1mb -
4:36 15 18 mph 1010.2mb -
4:30 14 18 mph - 72f
4:24 15 20 mph - 71f
4:18 15 20 mph 1010.2mb -
4:12 15 18 mph 1010.2mb -
4:06 15 18 mph 1010.2mb -
4:00 11 17 mph - 73f
3:54 11 16 mph - 73f
3:48 11 15 mph 1010.3mb -
3:42 7 15 mph 1010.5mb -
3:36 8 10 mph 1010.6mb -
3:30 10 15 mph 1010.5mb 74f
3:24 14 17 mph 1010.4mb 74f
3:18 15 17 mph 1010.5mb 74f
3:12 13 17 mph 1010.6mb 74f
3:06 10 14 mph 1010.6mb 74f
3:00 8 10 mph 1010.6mb 74f
2:54 10 14 mph 1010.7mb 74f
2:48 11 15 mph 1010.8mb 74f
2:42 13 16 mph 1010.9mb 74f
2:36 10 14 mph 1010.9mb 74f
2:30 11 15 mph 1010.9mb 74f
2:24 11 16 mph 1011mb 74f
2:18 13 17 mph 1011.1mb 74f
2:12 14 17 mph 1011.2mb 73f
2:06 14 20 mph 1011.3mb 73f
2:00 16 21 mph 1011.3mb 73f
1:54 16 20 mph 1011.4mb 73f
1:48 14 18 mph 1011.5mb 73f
1:42 15 20 mph 1011.5mb 73f
1:36 15 21 mph 1011.6mb 73f
1:30 14 18 mph 1011.7mb 73f
1:24 14 18 mph 1011.7mb 72f
1:18 14 17 mph 1011.7mb 73f
1:12 14 16 mph 1011.8mb 73f
1:06 13 15 mph 1011.9mb 74f
1:00 11 14 mph 1012mb 73f
12:54 10 14 mph 1012.1mb 73f
12:48 11 14 mph 1012.1mb 73f
12:42 11 14 mph 1012.2mb 73f
12:36 11 14 mph 1012.2mb 71f
12:30 9 13 mph 1012.2mb 70f
12:24 10 11 mph 1012.3mb 69f
12:18 9 10 mph 1012.4mb 69f
12:12 7 10 mph 1012.6mb 68f
12:06 7 8 mph 1012.5mb 69f
12:00 9 11 mph 1012.6mb 70f
11:54 10 11 mph 1012.5mb 70f
11:48 9 10 mph 1012.5mb 70f
11:42 9 10 mph 1012.8mb 70f
11:36 9 10 mph 1012.8mb 69f
11:30 10 11 mph 1012.8mb 69f
11:24 11
mph
1012.7mb 69f
11:18 11 13 mph 1012.6mb 70f
11:12 11 14 mph 1012.6mb 70f
11:06 11
mph
1012.7mb 71f
11:00 10 11 mph 1012.8mb 70f
10:54 10 11 mph 1013mb 71f
10:48 9
mph
1013.1mb 69f
10:42 8 9 mph 1013.1mb 69f
10:36 9 10 mph 1013.1mb 69f
10:30 10 11 mph 1012.9mb 68f
10:24 10
mph
1012.8mb 68f
10:18 10
mph
1012.8mb 69f
10:12 10 11 mph 1012.8mb 69f
10:06 10 11 mph 1012.7mb 69f
10:00 9 10 mph 1012.7mb 68f
9:54 10 11 mph 1012.8mb 69f
9:48 10 13 mph 1012.9mb 68f
9:42 13 15 mph 1012.2mb 67f
9:36 14
mph
1012mb 67f
9:30 13 14 mph 1011.9mb 67f
9:24 13
mph
1012.2mb 67f
9:18 11 13 mph 1012.1mb 67f
9:12 10 11 mph 1012.1mb 68f
9:06 13 14 mph 1012.1mb 68f
9:00 11 14 mph 1011.9mb 67f
8:54 9 10 mph 1011.9mb 67f
8:48 13 14 mph 1011.9mb 67f
8:42 13 14 mph 1011.8mb 67f
8:36 13 14 mph 1011.8mb 67f
8:30 13 14 mph 1011.8mb 67f
8:24 13 15 mph 1011.8mb 68f
8:18 13 15 mph 1011.7mb 67f
8:12 14 16 mph 1011.5mb 68f
8:06 14 16 mph 1011.7mb 67f
8:00 11 15 mph 1011.8mb 67f
7:54 11 14 mph 1011.8mb 67f
7:48 10 13 mph 1011.6mb 67f
7:42 9 11 mph 1011.8mb 67f
7:36 8 11 mph 1011.7mb 67f
7:30 8 10 mph 1011.7mb 67f
7:24 11 15 mph 1011.4mb 67f
7:18 11 15 mph 1011.2mb 67f
7:12 9 11 mph 1011.1mb 66f
7:06 9 14 mph 1011mb 66f
7:00 10 14 mph 1010.9mb 66f
6:54 9 11 mph 1010.9mb 66f
6:48 7 9 mph 1011mb 66f
6:42 8 11 mph 1011mb 66f
6:36 7 10 mph 1011mb 66f
6:30 7 9 mph 1011mb 66f
6:24 7 8 mph 1011.1mb 66f
6:18 9 11 mph 1011mb 66f
6:12 10 13 mph 1010.9mb 66f
6:06 9 13 mph 1010.9mb 66f
6:00 8 10 mph 1011mb 66f
5:54 7 8 mph 1011mb 66f
5:48 8 10 mph 1010.9mb 66f
5:42 8 10 mph 1010.9mb 66f
5:36 8 10 mph 1010.9mb 67f
5:30 8 10 mph 1010.8mb 67f
5:24 8 9 mph 1010.7mb 67f
5:18 8 9 mph 1010.7mb 67f
5:12 9 13 mph 1010.6mb 67f
5:06 9 11 mph 1010.5mb 67f
5:00 9 13 mph 1010.6mb 67f
4:54 10 13 mph 1010.6mb 67f
4:48 10 15 mph 1010.7mb 67f
4:42 9 11 mph 1010.7mb 67f
4:36 9 13 mph 1010.8mb 67f
4:30 9 11 mph 1010.8mb 67f
4:24 11 14 mph 1010.7mb 67f
4:18 11 14 mph 1010.8mb 67f
4:12 11 15 mph 1010.8mb 67f
4:06 11 14 mph 1010.7mb 67f
4:00 11 14 mph 1010.7mb 67f
3:54 10 14 mph 1010.9mb 67f
3:48 9 11 mph 1011mb 67f
3:42 9 11 mph 1011mb 67f
3:36 9 11 mph 1010.9mb 67f
3:30 9 13 mph 1010.9mb 68f
3:24 13 16 mph 1010.8mb 68f
3:18 14 17 mph 1010.8mb 67f
3:12 13 16 mph 1010.7mb 68f
3:06 13 16 mph 1010.7mb 68f
3:00 11 14 mph 1010.7mb 67f
2:54 10 16 mph 1010.8mb 67f
2:48 9 11 mph 1010.8mb 67f
2:42 9 11 mph 1010.7mb 68f
2:36 7 9 mph 1010.8mb 67f
2:30 7 9 mph 1010.9mb 68f
2:24 7 9 mph 1011mb 68f
2:18 7 9 mph 1011mb 67f
2:12 5 7 mph 1011mb 65f
2:06 5 6 mph 1010.8mb 65f
2:00 6
mph
1010.7mb 65f
1:54 6 7 mph 1010.7mb 65f
1:48 3 5 mph 1010.7mb 65f
1:42 6 7 mph 1010.7mb 65f
1:36 7 8 mph 1010.7mb 66f
1:30 6 7 mph 1010.8mb 65f
1:24 5 7 mph 1010.9mb 65f
1:18  -  2 mph 1010.9mb 66f
1:12 1 2 mph 1010.9mb 66f
1:06 1 2 mph 1010.9mb 66f
1:00  -  1 mph 1010.9mb 66f
12:54 1 2 mph 1010.9mb 66f
12:48 3 5 mph 1010.7mb 66f
12:42 3 6 mph 1010.7mb 66f
12:36 3 5 mph 1010.7mb 66f
12:30 5 6 mph 1010.7mb 67f
12:24 6
mph
1010.7mb 67f
12:18 2 5 mph 1010.8mb 67f
12:12  -  2 mph 1010.9mb 67f
12:06  -  1 mph 1010.8mb 67f
12:00 1 3 mph 1010.8mb 67f
Qua 09/21 11:54  -  3 mph 1010.9mb 67f
11:48 2 3 mph 1010.9mb 67f
11:42 1 3 mph 1010.8mb 67f
11:36  -  1 mph 1010.7mb 67f
11:30 1 2 mph 1010.7mb 67f
11:24 2 3 mph 1010.7mb 68f
11:18 3
mph
1010.7mb 67f
11:12 2 3 mph 1010.6mb 67f
11:06 1 2 mph 1010.6mb 67f
11:00 1 3 mph 1010.5mb 67f
10:54 2 3 mph 1010.4mb 67f
10:48  -  2 mph 1010.4mb -
10:42  -  2 mph 1010.4mb -
10:36  -  2 mph 1010.3mb -
10:30 1 2 mph 1010.3mb 67f
10:24  -  2 mph 1010.4mb 67f
10:18 1 2 mph 1010.3mb 67f
10:12  -  1 mph 1010.2mb 66f
10:06  -  1 mph 1010.2mb 65f
10:00 2 5 mph 1010.2mb 65f
9:54 6 7 mph 1010.1mb 65f
9:48 7 8 mph 1010.1mb 66f
9:42 5 6 mph 1010.1mb 66f
9:36 3 7 mph 1010.1mb 67f
9:30 5 7 mph 1010.1mb 67f
9:24 8 10 mph 1010.1mb 67f
9:18 9 10 mph 1010.1mb 67f
9:12 9 10 mph 1010mb 66f
9:06 9 10 mph 1010.1mb 67f
9:00 9 10 mph 1010mb 67f
8:54 9 10 mph 1010mb 67f
8:48 9 10 mph 1009.9mb 67f
8:42 9 10 mph 1009.9mb 67f
8:36 9 10 mph 1009.9mb 68f
8:30 6 9 mph 1009.9mb 68f
8:24 3 5 mph 1009.9mb 68f
8:12 3 5 mph 1009.6mb 67f
8:06 6 7 mph 1009.6mb 67f
8:00 7 8 mph 1009.6mb 67f
7:54 8 9 mph 1009.5mb 67f
7:48 9 10 mph 1009.5mb 68f
7:42 10 11 mph 1009.4mb 68f
7:36 10 11 mph 1009.4mb 69f
7:30 9 11 mph 1009.4mb -
7:24 7 9 mph 1009.3mb -
7:18 5 8 mph 1009.3mb 71f
7:12 6 7 mph 1009.3mb 72f
7:06 2 5 mph 1009.3mb 71f
7:00 2 5 mph 1009.2mb 71f
6:54 6 8 mph 1009.2mb 71f
6:48 7 10 mph - 72f
6:42 6 10 mph - 73f
6:36 6 8 mph - 73f
6:30 7 9 mph 1009.1mb -
6:24 9 10 mph 1009mb -
6:18 9 11 mph 1009mb 73f
6:12 7 9 mph 1009mb 75f
6:06 5 8 mph 1009mb 76f
6:00 3 6 mph 1009.1mb 76f
5:54 6 8 mph 1009.1mb 75f
5:48 7 9 mph 1009.1mb 73f
5:42 9 11 mph 1009mb 73f
5:36 9 11 mph 1009mb 74f
5:30 8 11 mph 1009mb 75f
5:24 8 10 mph 1008.9mb 74f
5:18  -  mph 1008.9mb 75f
5:12  -  mph 1008.8mb 76f
5:06  -  mph 1008.8mb 76f
5:00 11 14 mph 1008.8mb 77f
4:54 13 16 mph 1008.9mb 78f
4:48 13 16 mph 1008.8mb -
4:42 11 15 mph 1008.9mb -
4:36 11 14 mph 1008.9mb -
4:30 11 14 mph 1008.9mb 77f
4:24 11 15 mph 1009mb 78f
4:18 11 15 mph - 79f
4:12 13 16 mph - 79f
4:06 11 16 mph - 80f
4:00  -  mph 1009.2mb 80f
3:54  -  mph 1009.3mb 80f
3:48 11 16 mph - 80f
3:42 11 14 mph - 80f
3:36 11 15 mph - 80f
3:30 13 16 mph 1009.4mb 80f
3:24 13 16 mph 1009.4mb 80f
3:18 11 15 mph 1009.4mb 80f
3:12 13 15 mph 1009.5mb 80f
3:06 13 16 mph 1009.5mb 80f
3:00 13 16 mph 1009.6mb 80f
2:54 14 17 mph 1009.6mb 80f
2:48  -  mph 1009.7mb 80f
2:42  -  mph 1009.8mb 79f
2:36  -  mph 1009.7mb 79f
2:30 11 15 mph 1009.8mb 79f
2:24 14 18 mph 1009.8mb 79f
2:18 15 18 mph 1009.8mb 79f
2:12 13 17 mph 1009.8mb 79f
2:06 13 16 mph 1009.9mb 80f
2:00 14 17 mph 1010.1mb 79f
1:54 13 17 mph 1010.1mb 79f
1:48 13 16 mph 1010.1mb 79f
1:42 13 17 mph 1010.2mb 80f
1:36 14 16 mph 1010.3mb 80f
1:30 13 17 mph 1010.4mb 80f
1:24 14 20 mph 1010.2mb 79f
1:18 11 16 mph 1010.5mb 80f
1:12 11 14 mph 1010.6mb 78f
1:06 10 13 mph 1010.7mb 78f
1:00 11 14 mph 1010.7mb 77f
12:54 11 14 mph 1010.8mb 76f
12:48 13 14 mph 1010.8mb 76f
12:42 13 15 mph 1011mb 76f
12:36 13 14 mph 1011mb 76f
12:30 13 14 mph 1011mb 77f
12:24 11 13 mph 1011.1mb 78f
12:18 10 13 mph 1011.3mb 78f
12:12 10 11 mph 1011.4mb 78f
12:06 11 13 mph 1011.5mb 76f
12:00 10 13 mph 1011.6mb 76f
11:54 11 13 mph 1011.7mb 74f
11:48 13 14 mph 1011.7mb 72f
11:42 13 14 mph 1011.5mb 71f
11:36 13 14 mph 1011.4mb 71f
11:30 11 13 mph 1011.5mb 73f
11:24 11 13 mph 1011.6mb 74f
11:18 10 11 mph 1011.8mb 74f
11:12 9 11 mph 1011.8mb 74f
11:06 13 14 mph 1011.8mb 73f
11:00 15 16 mph 1011.7mb 72f
10:54 14 15 mph 1011.6mb 73f
10:48 11 13 mph 1011.9mb 74f
10:42 10
mph
1011.7mb 74f
10:36 8 9 mph 1012mb 76f
10:30 7 8 mph 1012mb 74f
10:24 7 8 mph 1012.2mb 73f
10:18 7 8 mph 1011.9mb -
10:12 6 7 mph 1012mb -
10:06 6
mph
1011.8mb -
10:00 6
mph
1012mb 70f
9:54 6
mph
1012mb 70f
9:48 6 7 mph 1012mb 71f
9:42 6
mph
1011.9mb 72f
9:36 7 8 mph 1011.8mb 71f
9:30 7 8 mph 1011.6mb 70f
9:24 3 6 mph 1011.5mb 72f
9:18 1 2 mph 1011.6mb 76f
9:12 2
mph
1011.8mb 79f
9:06 2 3 mph 1011.8mb 79f
9:00 1 3 mph 1011.8mb 79f
8:54 1 3 mph 1011.7mb 78f
8:48 2 3 mph 1011.7mb 76f
8:42 5 6 mph 1011.3mb 75f
8:36 5
mph
1011.2mb 75f
8:30 2 5 mph 1011.3mb 76f
8:24 2 3 mph 1011.4mb 75f
8:18 1 3 mph 1011.5mb 75f
8:12 1 2 mph 1011.6mb 75f
8:06 2 3 mph 1011.5mb 73f
8:00 3 5 mph 1011.4mb 72f
7:54 3
mph
1011.4mb 72f
7:48 2 3 mph 1011.4mb 71f
7:42 2
mph
1011.3mb 71f
7:36 2
mph
1011.2mb 70f
7:30 1 2 mph 1011.2mb 70f
7:24 2
mph
1011.2mb 69f
7:18 3 5 mph 1011mb 69f
7:12 3 5 mph 1010.8mb 68f
7:06 2 3 mph 1010.7mb 68f
7:00 2
mph
1010.7mb 68f
6:54 2 3 mph 1010.6mb 67f
6:48 2 3 mph 1010.5mb 67f
6:42 2 3 mph 1010.4mb 67f
6:36 2
mph
1010.4mb 67f
6:30 2 3 mph 1010.4mb 67f
6:24 3 5 mph 1010.4mb 67f
6:18 5 6 mph 1010.4mb 67f
6:12 6
mph
1010.4mb 67f
6:06 6
mph
1010.5mb 68f
6:00 6 7 mph 1010.5mb 67f
5:54 6 7 mph 1010.5mb 67f
5:48 7
mph
1010.5mb 67f
5:42 7
mph
1010.5mb 67f
5:36 7
mph
1010.5mb 67f
5:30 8 10 mph 1010.5mb 67f
5:24 10 13 mph 1010.5mb 67f
5:18 7 10 mph 1010.4mb 67f
5:12  -  3 mph 1010.3mb 69f
5:06 1 3 mph 1010.2mb 71f
5:00 3 5 mph 1010.3mb 71f
4:54 3 5 mph 1010.3mb 71f
4:48 5 6 mph 1010.3mb 72f
4:42 5 8 mph 1010.4mb 71f
4:36 6 7 mph 1010.4mb 70f
4:30 6
mph
1010.4mb 70f
4:24 5 6 mph 1010.4mb 70f
4:18 2 3 mph 1010.4mb 69f
4:12 1 2 mph 1010.5mb 69f
4:06  -  1 mph 1010.6mb 69f
4:00  -  mph 1010.7mb 70f
3:54  -  1 mph 1010.7mb 70f
3:48  -  1 mph 1010.7mb 70f
3:42 2
mph
1010.8mb 70f
3:36 2 3 mph 1010.9mb 69f
3:30 3 5 mph 1010.9mb 69f
3:24 5 7 mph 1011mb 68f
3:18 7
mph
1011.1mb 68f
3:12 6
mph
1011.1mb 67f
3:06 5 7 mph 1011.1mb 67f
3:00 3
mph
1011.1mb 67f
2:54 1 3 mph 1011.1mb 70f
2:48 2 3 mph 1011.2mb 72f
2:42 3 5 mph 1011.3mb 72f
2:36 6
mph
1011.4mb 71f
2:30 6 7 mph 1011.4mb 71f
2:24 7
mph
1011.5mb 70f
2:18 7 8 mph 1011.5mb 69f
2:12 6 7 mph 1011.5mb 70f
2:06 5 6 mph 1011.5mb 70f
2:00 3 5 mph 1011.5mb 71f
1:54 2 3 mph 1011.6mb 70f
1:48 2
mph
1011.6mb 69f
1:42 2 3 mph 1011.6mb 69f
1:36 2 3 mph 1011.6mb 71f
1:30 2 3 mph 1011.6mb 70f
1:24 3 5 mph 1011.5mb 71f
1:18 3 5 mph 1011.5mb 71f
1:12 5
mph
1011.6mb 70f
1:06 3 5 mph 1011.6mb 70f
1:00 3 5 mph 1011.8mb 71f
12:54 3
mph
1011.8mb 70f
12:48 2 3 mph 1011.8mb 69f
12:42 1 2 mph 1011.8mb 69f